Time;durP1;ratioP1;P1;durP2;ratioP2;P2;SDS_P1;SDS_P2;PMS_P1;PMS_P2;Temp;Humidity;BMP_temperature;BMP_pressure;BME280_temperature;BME280_humidity;BME280_pressure;Samples;Min_cycle;Max_cycle;Signal;HPM_P1;HPM_P2
2023/06/15 00:02:15;;;;;;;3.10;1.98;;;;;;;;;;5059860;28;20207;-67
2023/06/15 00:04:42;;;;;;;3.17;2.03;;;;;;;;;;5060682;28;20230;-67
2023/06/15 00:07:10;;;;;;;2.97;2.15;;;;;;;;;;5059620;28;20551;-67
2023/06/15 00:09:37;;;;;;;1.90;1.80;;;;;;;;;;5059124;28;20215;-67
2023/06/15 00:12:04;;;;;;;2.10;2.00;;;;;;;;;;5058514;28;20227;-67
2023/06/15 00:14:31;;;;;;;2.17;1.95;;;;;;;;;;5056851;28;20294;-67
2023/06/15 00:16:58;;;;;;;1.90;1.80;;;;;;;;;;5058336;28;20209;-67
2023/06/15 00:19:28;;;;;;;2.13;1.90;;;;;;;;;;5061611;28;20199;-67
2023/06/15 00:21:56;;;;;;;2.13;2.00;;;;;;;;;;5064620;28;20209;-67
2023/06/15 00:24:23;;;;;;;2.00;1.90;;;;;;;;;;5060135;28;20199;-67
2023/06/15 00:26:51;;;;;;;3.42;1.73;;;;;;;;;;5060137;28;20200;-67
2023/06/15 00:29:18;;;;;;;1.92;1.83;;;;;;;;;;5065189;28;20204;-67
2023/06/15 00:31:45;;;;;;;4.47;2.25;;;;;;;;;;5058002;28;20199;-67
2023/06/15 00:34:12;;;;;;;2.10;1.90;;;;;;;;;;5061219;28;20265;-67
2023/06/15 00:36:41;;;;;;;2.13;1.90;;;;;;;;;;5055932;28;20212;-67
2023/06/15 00:39:09;;;;;;;1.88;1.77;;;;;;;;;;5055120;28;20218;-67
2023/06/15 00:41:42;;;;;;;2.08;1.88;;;;;;;;;;5058071;28;20238;-67
2023/06/15 00:44:09;;;;;;;2.38;1.95;;;;;;;;;;5061918;28;20207;-67
2023/06/15 00:46:37;;;;;;;2.53;2.30;;;;;;;;;;5065841;28;20195;-67
2023/06/15 00:49:05;;;;;;;2.03;1.92;;;;;;;;;;5063196;28;20210;-66
2023/06/15 00:51:32;;;;;;;2.42;1.77;;;;;;;;;;5057688;28;20256;-67
2023/06/15 00:54:01;;;;;;;3.00;2.03;;;;;;;;;;5062631;28;20214;-67
2023/06/15 00:56:29;;;;;;;2.25;2.10;;;;;;;;;;5061536;28;20199;-66
2023/06/15 00:58:56;;;;;;;2.10;2.00;;;;;;;;;;5059734;28;20206;-67
2023/06/15 01:01:23;;;;;;;2.53;2.00;;;;;;;;;;5054914;28;20219;-66
2023/06/15 01:03:51;;;;;;;2.00;1.90;;;;;;;;;;5063162;28;20289;-67
2023/06/15 01:06:19;;;;;;;2.10;2.00;;;;;;;;;;5058158;28;20199;-67
2023/06/15 01:08:47;;;;;;;1.92;1.83;;;;;;;;;;5058663;28;20223;-66
2023/06/15 01:11:16;;;;;;;2.53;2.33;;;;;;;;;;5057433;28;20222;-67
2023/06/15 01:13:44;;;;;;;4.13;2.10;;;;;;;;;;5059543;28;20222;-68
2023/06/15 01:16:16;;;;;;;2.17;1.80;;;;;;;;;;5056847;28;20203;-67
2023/06/15 01:18:46;;;;;;;2.20;2.00;;;;;;;;;;5059632;28;20222;-67
2023/06/15 01:21:13;;;;;;;2.00;1.90;;;;;;;;;;5056627;28;20215;-68
2023/06/15 01:23:41;;;;;;;2.08;1.88;;;;;;;;;;5058524;28;20205;-67
2023/06/15 01:26:12;;;;;;;2.17;1.90;;;;;;;;;;5060413;28;20203;-67
2023/06/15 01:28:40;;;;;;;2.45;2.25;;;;;;;;;;5063272;28;20199;-67
2023/06/15 01:31:08;;;;;;;2.42;2.00;;;;;;;;;;5060316;28;20205;-67
2023/06/15 01:33:35;;;;;;;2.85;1.88;;;;;;;;;;5058673;28;20207;-67
2023/06/15 01:36:02;;;;;;;3.60;2.00;;;;;;;;;;5058216;28;20207;-67
2023/06/15 01:38:31;;;;;;;3.00;1.92;;;;;;;;;;5060333;28;20203;-67
2023/06/15 01:40:58;;;;;;;1.95;1.85;;;;;;;;;;5058597;28;20226;-67
2023/06/15 01:43:28;;;;;;;2.78;1.73;;;;;;;;;;5060592;28;20209;-68
2023/06/15 01:45:55;;;;;;;2.00;1.90;;;;;;;;;;5062413;28;20199;-67
2023/06/15 01:48:25;;;;;;;1.95;1.80;;;;;;;;;;5062140;28;20202;-67
2023/06/15 01:50:52;;;;;;;1.98;1.88;;;;;;;;;;5058986;28;20282;-67
2023/06/15 01:53:19;;;;;;;4.60;1.98;;;;;;;;;;5066081;28;20207;-66
2023/06/15 01:55:47;;;;;;;2.05;1.95;;;;;;;;;;5064989;28;20210;-67
2023/06/15 01:58:15;;;;;;;2.15;1.80;;;;;;;;;;5065430;28;20203;-67
2023/06/15 02:00:44;;;;;;;3.08;1.98;;;;;;;;;;5064019;28;20276;-67
2023/06/15 02:03:12;;;;;;;1.90;1.80;;;;;;;;;;5065215;28;20217;-67
2023/06/15 02:05:40;;;;;;;2.00;1.90;;;;;;;;;;5064758;28;20221;-67
2023/06/15 02:08:07;;;;;;;2.00;1.90;;;;;;;;;;5066830;28;20225;-67
2023/06/15 02:10:35;;;;;;;3.42;2.00;;;;;;;;;;5065714;28;20230;-67
2023/06/15 02:13:02;;;;;;;2.00;1.90;;;;;;;;;;5062717;28;20214;-67
2023/06/15 02:15:29;;;;;;;2.10;1.95;;;;;;;;;;5064640;28;20199;-67
2023/06/15 02:18:01;;;;;;;2.65;2.00;;;;;;;;;;5067016;28;20206;-68
2023/06/15 02:20:28;;;;;;;3.67;1.90;;;;;;;;;;5063082;28;20306;-68
2023/06/15 02:22:57;;;;;;;1.98;1.88;;;;;;;;;;5062564;28;20198;-68
2023/06/15 02:25:24;;;;;;;2.30;2.10;;;;;;;;;;5062963;28;20202;-68
2023/06/15 02:27:52;;;;;;;1.92;1.83;;;;;;;;;;5062193;28;20211;-67
2023/06/15 02:30:19;;;;;;;2.10;1.90;;;;;;;;;;5061046;28;20209;-67
2023/06/15 02:32:48;;;;;;;1.83;1.73;;;;;;;;;;5063276;28;20206;-67
2023/06/15 02:35:17;;;;;;;3.10;1.90;;;;;;;;;;5061195;28;20230;-67
2023/06/15 02:37:44;;;;;;;1.92;1.80;;;;;;;;;;5064769;28;20283;-67
2023/06/15 02:40:12;;;;;;;5.57;2.00;;;;;;;;;;5067230;28;20203;-67
2023/06/15 02:42:39;;;;;;;1.95;1.85;;;;;;;;;;5062268;28;20211;-67
2023/06/15 02:45:07;;;;;;;4.00;2.00;;;;;;;;;;5065344;28;20254;-68
2023/06/15 02:47:35;;;;;;;2.15;1.95;;;;;;;;;;5064059;28;20279;-67
2023/06/15 02:50:02;;;;;;;2.17;1.98;;;;;;;;;;5064724;28;20240;-67
2023/06/15 02:52:31;;;;;;;1.98;1.77;;;;;;;;;;5061202;28;20203;-67
2023/06/15 02:54:58;;;;;;;1.80;1.70;;;;;;;;;;5063830;28;20217;-67
2023/06/15 02:57:26;;;;;;;2.00;1.90;;;;;;;;;;5061182;28;20215;-67
2023/06/15 02:59:53;;;;;;;1.88;1.77;;;;;;;;;;5064475;28;20207;-68
2023/06/15 03:02:21;;;;;;;2.22;2.03;;;;;;;;;;5064088;28;20223;-67
2023/06/15 03:04:48;;;;;;;1.90;1.70;;;;;;;;;;5058913;28;20310;-68
2023/06/15 03:07:17;;;;;;;2.40;1.95;;;;;;;;;;5062795;28;20205;-68
2023/06/15 03:09:55;;;;;;;1.85;1.75;;;;;;;;;;5064610;28;20205;-68
2023/06/15 03:12:22;;;;;;;2.13;2.00;;;;;;;;;;5059018;28;20195;-68
2023/06/15 03:14:51;;;;;;;2.08;1.98;;;;;;;;;;5059991;28;20203;-67
2023/06/15 03:17:18;;;;;;;2.08;1.73;;;;;;;;;;5061582;28;20204;-67
2023/06/15 03:19:47;;;;;;;2.00;1.88;;;;;;;;;;5061116;28;20207;-68
2023/06/15 03:22:14;;;;;;;2.00;1.90;;;;;;;;;;5063107;28;20250;-68
2023/06/15 03:24:43;;;;;;;2.10;2.00;;;;;;;;;;5062840;28;20290;-68
2023/06/15 03:27:12;;;;;;;2.33;1.90;;;;;;;;;;5064340;28;20215;-68
2023/06/15 03:29:39;;;;;;;2.47;2.10;;;;;;;;;;5062365;28;20211;-68
2023/06/15 03:32:08;;;;;;;2.28;1.67;;;;;;;;;;5061925;28;20221;-67
2023/06/15 03:34:36;;;;;;;2.03;1.83;;;;;;;;;;5061568;28;20288;-69
2023/06/15 03:37:04;;;;;;;1.92;1.83;;;;;;;;;;5057231;28;20203;-67
2023/06/15 03:39:31;;;;;;;2.35;1.77;;;;;;;;;;5059584;28;20227;-68
2023/06/15 03:41:58;;;;;;;2.05;1.90;;;;;;;;;;5061178;28;20225;-67
2023/06/15 03:44:27;;;;;;;1.90;1.80;;;;;;;;;;5063256;28;20206;-67
2023/06/15 03:46:54;;;;;;;2.17;1.90;;;;;;;;;;5057880;28;20213;-67
2023/06/15 03:49:22;;;;;;;1.83;1.73;;;;;;;;;;5066762;28;20202;-67
2023/06/15 03:51:49;;;;;;;2.10;2.00;;;;;;;;;;5062069;28;20198;-70
2023/06/15 03:54:16;;;;;;;2.20;2.10;;;;;;;;;;5135925;22;20230;-68
2023/06/15 03:56:44;;;;;;;2.00;1.90;;;;;;;;;;5060805;28;20284;-69
2023/06/15 03:59:11;;;;;;;2.38;2.17;;;;;;;;;;5068132;28;20214;-69
2023/06/15 04:01:39;;;;;;;1.88;1.77;;;;;;;;;;5061938;28;20230;-69
2023/06/15 04:04:06;;;;;;;2.05;1.95;;;;;;;;;;5064079;28;20210;-68
2023/06/15 04:06:35;;;;;;;2.17;2.03;;;;;;;;;;5064033;28;20203;-68
2023/06/15 04:09:03;;;;;;;2.30;2.10;;;;;;;;;;5060610;28;20294;-68
2023/06/15 04:11:30;;;;;;;1.92;1.83;;;;;;;;;;5064943;28;20203;-68
2023/06/15 04:13:57;;;;;;;2.15;1.77;;;;;;;;;;5061135;28;20206;-69
2023/06/15 04:16:24;;;;;;;2.05;1.95;;;;;;;;;;5060055;28;20207;-69
2023/06/15 04:18:53;;;;;;;1.88;1.75;;;;;;;;;;5060580;28;20195;-69
2023/06/15 04:21:20;;;;;;;1.90;1.80;;;;;;;;;;5062842;28;20309;-68
2023/06/15 04:23:47;;;;;;;2.55;2.30;;;;;;;;;;5058433;28;20201;-68
2023/06/15 04:26:14;;;;;;;2.42;1.98;;;;;;;;;;5059163;28;20199;-68
2023/06/15 04:28:45;;;;;;;2.10;2.00;;;;;;;;;;5062967;28;20206;-68
2023/06/15 04:31:14;;;;;;;2.97;2.15;;;;;;;;;;5060067;28;20273;-69
2023/06/15 04:33:42;;;;;;;2.15;2.00;;;;;;;;;;5058270;28;20199;-69
2023/06/15 04:36:12;;;;;;;2.20;2.00;;;;;;;;;;5063384;28;20214;-69
2023/06/15 04:38:39;;;;;;;2.03;1.80;;;;;;;;;;5064231;28;20206;-69
2023/06/15 04:41:08;;;;;;;2.72;2.15;;;;;;;;;;5060430;28;20235;-69
2023/06/15 04:43:36;;;;;;;2.75;2.55;;;;;;;;;;5059231;28;20198;-68
2023/06/15 04:46:03;;;;;;;2.00;1.90;;;;;;;;;;5067874;28;20202;-68
2023/06/15 04:48:32;;;;;;;2.10;1.90;;;;;;;;;;5070301;28;20202;-68
2023/06/15 04:50:59;;;;;;;3.10;1.80;;;;;;;;;;5058232;28;20217;-68
2023/06/15 04:53:28;;;;;;;2.10;1.88;;;;;;;;;;5060394;28;20294;-68
2023/06/15 04:55:55;;;;;;;2.38;2.00;;;;;;;;;;5065405;28;20245;-68
2023/06/15 04:58:22;;;;;;;1.90;1.80;;;;;;;;;;5068799;28;20201;-69
2023/06/15 05:00:49;;;;;;;2.17;2.03;;;;;;;;;;5066633;28;20198;-69
2023/06/15 05:03:16;;;;;;;2.00;1.90;;;;;;;;;;5070173;28;20198;-70
2023/06/15 05:05:43;;;;;;;2.05;1.95;;;;;;;;;;5068676;28;20207;-70
2023/06/15 05:08:10;;;;;;;2.20;2.00;;;;;;;;;;5060684;28;20217;-69
2023/06/15 05:10:39;;;;;;;1.73;1.63;;;;;;;;;;5063595;28;20297;-69
2023/06/15 05:13:06;;;;;;;3.13;2.20;;;;;;;;;;5064124;28;20197;-69
2023/06/15 05:15:34;;;;;;;3.83;2.00;;;;;;;;;;5064451;28;20199;-69
2023/06/15 05:18:01;;;;;;;2.42;2.22;;;;;;;;;;5058300;28;20242;-68
2023/06/15 05:20:29;;;;;;;4.75;2.03;;;;;;;;;;5059400;28;20206;-68
2023/06/15 05:22:56;;;;;;;2.63;2.08;;;;;;;;;;5062613;28;20228;-68
2023/06/15 05:25:24;;;;;;;2.75;2.13;;;;;;;;;;5062448;28;20211;-68
2023/06/15 05:27:52;;;;;;;2.70;1.85;;;;;;;;;;5064144;28;20210;-69
2023/06/15 05:30:19;;;;;;;2.10;1.90;;;;;;;;;;5065901;28;20207;-68
2023/06/15 05:32:47;;;;;;;1.90;1.80;;;;;;;;;;5063815;28;20309;-67
2023/06/15 05:35:14;;;;;;;1.92;1.83;;;;;;;;;;5066464;28;20214;-67
2023/06/15 05:37:41;;;;;;;2.03;1.92;;;;;;;;;;5072849;28;20215;-66
2023/06/15 05:40:09;;;;;;;1.92;1.83;;;;;;;;;;5081350;28;20205;-65
2023/06/15 05:42:36;;;;;;;3.53;2.00;;;;;;;;;;5066377;28;20218;-66
2023/06/15 05:45:05;;;;;;;4.00;2.20;;;;;;;;;;5073842;28;20203;-66
2023/06/15 05:47:32;;;;;;;2.20;2.10;;;;;;;;;;5067338;28;20198;-66
2023/06/15 05:50:00;;;;;;;2.75;2.00;;;;;;;;;;5078173;28;20199;-66
2023/06/15 05:52:27;;;;;;;2.00;1.90;;;;;;;;;;5077724;28;20199;-66
2023/06/15 05:54:54;;;;;;;3.25;2.22;;;;;;;;;;5071156;28;20236;-66
2023/06/15 05:57:22;;;;;;;2.70;1.90;;;;;;;;;;5077134;28;20207;-66
2023/06/15 05:59:49;;;;;;;2.53;2.30;;;;;;;;;;5080746;28;20205;-65
2023/06/15 06:02:19;;;;;;;2.92;1.90;;;;;;;;;;5077772;28;20268;-66
2023/06/15 06:04:46;;;;;;;2.17;2.00;;;;;;;;;;5078204;28;20199;-66
2023/06/15 06:07:14;;;;;;;1.90;1.80;;;;;;;;;;5077223;28;20199;-65
2023/06/15 06:09:41;;;;;;;3.10;2.20;;;;;;;;;;5076421;28;20294;-66
2023/06/15 06:12:09;;;;;;;2.78;2.05;;;;;;;;;;5065187;28;20195;-65
2023/06/15 06:14:36;;;;;;;2.15;2.00;;;;;;;;;;5074561;28;20213;-65
2023/06/15 06:17:04;;;;;;;2.17;1.98;;;;;;;;;;5081460;28;20199;-66
2023/06/15 06:19:32;;;;;;;3.22;2.00;;;;;;;;;;5077222;28;20199;-66
2023/06/15 06:22:00;;;;;;;2.30;2.05;;;;;;;;;;5072115;28;20234;-65
2023/06/15 06:24:27;;;;;;;2.10;2.00;;;;;;;;;;5079691;28;20202;-65
2023/06/15 06:26:54;;;;;;;2.38;2.17;;;;;;;;;;5078194;28;20198;-66
2023/06/15 06:29:21;;;;;;;3.15;2.17;;;;;;;;;;5075420;28;20198;-65
2023/06/15 06:31:48;;;;;;;2.20;2.10;;;;;;;;;;5063276;28;20203;-65
2023/06/15 06:34:15;;;;;;;2.10;1.98;;;;;;;;;;5072682;28;20207;-66
2023/06/15 06:36:44;;;;;;;4.53;1.90;;;;;;;;;;5070970;28;20221;-66
2023/06/15 06:39:11;;;;;;;2.92;2.10;;;;;;;;;;5073495;28;20217;-66
2023/06/15 06:41:39;;;;;;;2.95;2.30;;;;;;;;;;5072123;28;20209;-66
2023/06/15 06:44:06;;;;;;;2.60;2.40;;;;;;;;;;5073299;28;20209;-66
2023/06/15 06:46:33;;;;;;;2.05;1.85;;;;;;;;;;5072806;28;20202;-65
2023/06/15 06:49:00;;;;;;;1.88;1.77;;;;;;;;;;5076370;28;20206;-65
2023/06/15 06:51:28;;;;;;;2.50;2.30;;;;;;;;;;5073256;28;20213;-66
2023/06/15 06:53:56;;;;;;;2.30;2.10;;;;;;;;;;5077621;28;20217;-66
2023/06/15 06:56:23;;;;;;;3.88;2.10;;;;;;;;;;5071923;28;20209;-66
2023/06/15 06:58:50;;;;;;;2.47;2.28;;;;;;;;;;5076483;28;20210;-66
2023/06/15 07:01:18;;;;;;;2.20;2.10;;;;;;;;;;5071100;28;20297;-66
2023/06/15 07:03:45;;;;;;;2.70;1.95;;;;;;;;;;5068297;28;20226;-66
2023/06/15 07:06:12;;;;;;;2.35;1.98;;;;;;;;;;5074330;28;20199;-66
2023/06/15 07:08:40;;;;;;;2.10;2.00;;;;;;;;;;5075772;28;20206;-66
2023/06/15 07:11:08;;;;;;;4.20;2.10;;;;;;;;;;5074314;28;20210;-66
2023/06/15 07:13:35;;;;;;;3.15;2.25;;;;;;;;;;5069371;28;20225;-66
2023/06/15 07:16:04;;;;;;;2.00;1.90;;;;;;;;;;5075375;28;20208;-66
2023/06/15 07:18:31;;;;;;;2.40;2.10;;;;;;;;;;5069674;28;20196;-66
2023/06/15 07:20:58;;;;;;;1.95;1.85;;;;;;;;;;5062170;28;20211;-65
2023/06/15 07:23:26;;;;;;;2.70;2.28;;;;;;;;;;5075086;28;20226;-65
2023/06/15 07:25:54;;;;;;;2.13;1.98;;;;;;;;;;5071906;28;20205;-65
2023/06/15 07:28:23;;;;;;;2.75;1.90;;;;;;;;;;5075453;28;20298;-66
2023/06/15 07:30:50;;;;;;;1.85;1.70;;;;;;;;;;5073040;28;20207;-65
2023/06/15 07:33:17;;;;;;;2.20;2.03;;;;;;;;;;5070692;28;20207;-66
2023/06/15 07:35:44;;;;;;;2.20;2.08;;;;;;;;;;5072214;28;20213;-66
2023/06/15 07:38:13;;;;;;;3.05;2.03;;;;;;;;;;5079078;28;20210;-65
2023/06/15 07:40:40;;;;;;;2.80;1.83;;;;;;;;;;5077323;28;20198;-66
2023/06/15 07:43:07;;;;;;;1.92;1.83;;;;;;;;;;5076816;28;20215;-66
2023/06/15 07:45:36;;;;;;;2.05;1.95;;;;;;;;;;5067858;28;20199;-66
2023/06/15 07:48:03;;;;;;;2.33;2.13;;;;;;;;;;5069184;28;20202;-66
2023/06/15 07:50:30;;;;;;;2.15;1.98;;;;;;;;;;5071669;28;20198;-67
2023/06/15 07:52:58;;;;;;;2.40;2.20;;;;;;;;;;5074511;28;20205;-67
2023/06/15 07:55:25;;;;;;;3.72;2.10;;;;;;;;;;5073729;28;20237;-66
2023/06/15 07:57:52;;;;;;;1.95;1.85;;;;;;;;;;5066992;28;20217;-67
2023/06/15 08:00:20;;;;;;;2.47;1.90;;;;;;;;;;5075135;28;20214;-66
2023/06/15 08:02:49;;;;;;;2.00;1.90;;;;;;;;;;5070815;28;20254;-67
2023/06/15 08:05:16;;;;;;;2.45;2.20;;;;;;;;;;5066958;28;20289;-67
2023/06/15 08:07:43;;;;;;;2.45;1.92;;;;;;;;;;5067551;28;20198;-67
2023/06/15 08:10:11;;;;;;;2.17;1.98;;;;;;;;;;5066403;28;20211;-66
2023/06/15 08:12:38;;;;;;;2.42;2.00;;;;;;;;;;5068772;28;20198;-67
2023/06/15 08:15:06;;;;;;;1.95;1.85;;;;;;;;;;5067137;28;20311;-66
2023/06/15 08:17:33;;;;;;;2.10;1.90;;;;;;;;;;5069152;28;20201;-66
2023/06/15 08:20:05;;;;;;;2.22;2.00;;;;;;;;;;5065298;28;20207;-66
2023/06/15 08:22:32;;;;;;;2.13;2.00;;;;;;;;;;5061058;28;20226;-68
2023/06/15 08:24:59;;;;;;;2.10;2.00;;;;;;;;;;5060903;28;20210;-68
2023/06/15 08:27:27;;;;;;;2.50;2.30;;;;;;;;;;5075109;28;20221;-67
2023/06/15 08:29:54;;;;;;;2.75;2.05;;;;;;;;;;5067543;28;20210;-66
2023/06/15 08:32:21;;;;;;;3.13;2.40;;;;;;;;;;5074459;28;20260;-67
2023/06/15 08:34:49;;;;;;;1.90;1.80;;;;;;;;;;5064822;28;20211;-67
2023/06/15 08:37:17;;;;;;;2.33;2.13;;;;;;;;;;5071087;28;20268;-67
2023/06/15 08:39:44;;;;;;;2.22;1.95;;;;;;;;;;5063399;28;20203;-69
2023/06/15 08:42:11;;;;;;;2.13;2.03;;;;;;;;;;5066006;28;20212;-67
2023/06/15 08:44:39;;;;;;;2.22;2.03;;;;;;;;;;5069623;28;20210;-66
2023/06/15 08:47:07;;;;;;;2.10;1.90;;;;;;;;;;5065917;28;20230;-67
2023/06/15 08:49:34;;;;;;;2.53;2.33;;;;;;;;;;5070840;28;20201;-68
2023/06/15 08:52:01;;;;;;;1.92;1.83;;;;;;;;;;5069062;28;20237;-68
2023/06/15 08:54:31;;;;;;;2.22;2.10;;;;;;;;;;5065437;28;20375;-67
2023/06/15 08:56:58;;;;;;;2.45;2.00;;;;;;;;;;5064193;28;20201;-66
2023/06/15 08:59:26;;;;;;;1.80;1.70;;;;;;;;;;5073556;28;20210;-67
2023/06/15 09:01:55;;;;;;;2.25;2.05;;;;;;;;;;5073488;28;20202;-67
2023/06/15 09:04:22;;;;;;;2.13;2.00;;;;;;;;;;5080128;28;20215;-66
2023/06/15 09:06:51;;;;;;;2.00;1.90;;;;;;;;;;5082808;28;20261;-67
2023/06/15 09:09:18;;;;;;;1.85;1.75;;;;;;;;;;5065620;28;20207;-67
2023/06/15 09:11:47;;;;;;;2.05;1.90;;;;;;;;;;5088463;28;20202;-67
2023/06/15 09:14:14;;;;;;;2.28;1.90;;;;;;;;;;5082669;28;20209;-69
2023/06/15 09:16:42;;;;;;;2.08;1.90;;;;;;;;;;5071156;28;20210;-68
2023/06/15 09:19:11;;;;;;;2.45;1.80;;;;;;;;;;5074891;28;20204;-68
2023/06/15 09:21:41;;;;;;;1.70;1.60;;;;;;;;;;5076692;28;20200;-68
2023/06/15 09:24:09;;;;;;;1.65;1.55;;;;;;;;;;5072073;28;20257;-68
2023/06/15 09:26:38;;;;;;;1.95;1.85;;;;;;;;;;5081406;28;20213;-67
2023/06/15 09:29:09;;;;;;;1.88;1.77;;;;;;;;;;5078881;28;20210;-67
2023/06/15 09:31:37;;;;;;;1.60;1.50;;;;;;;;;;5084750;28;20198;-67
2023/06/15 09:34:05;;;;;;;2.53;1.80;;;;;;;;;;5078171;28;20198;-67
2023/06/15 09:36:36;;;;;;;1.92;1.75;;;;;;;;;;5080288;28;20199;-68
2023/06/15 09:39:05;;;;;;;1.67;1.58;;;;;;;;;;5075815;28;20203;-68
2023/06/15 09:41:32;;;;;;;2.97;1.63;;;;;;;;;;5081513;28;20281;-67
2023/06/15 09:44:02;;;;;;;1.63;1.50;;;;;;;;;;5077358;28;20218;-69
2023/06/15 09:46:31;;;;;;;2.25;1.52;;;;;;;;;;5074988;28;20207;-67
2023/06/15 09:48:58;;;;;;;1.92;1.80;;;;;;;;;;5076444;28;20198;-67
2023/06/15 09:51:29;;;;;;;1.90;1.80;;;;;;;;;;5078259;28;20213;-67
2023/06/15 09:53:58;;;;;;;1.90;1.80;;;;;;;;;;5078131;28;20268;-67
2023/06/15 09:56:26;;;;;;;3.67;1.80;;;;;;;;;;5076838;28;20202;-66
2023/06/15 09:58:53;;;;;;;1.70;1.60;;;;;;;;;;5081054;28;20210;-67
2023/06/15 10:01:24;;;;;;;2.50;1.70;;;;;;;;;;5078268;28;20213;-67
2023/06/15 10:03:56;;;;;;;1.85;1.75;;;;;;;;;;5079925;28;20246;-67
2023/06/15 10:06:23;;;;;;;1.88;1.77;;;;;;;;;;5068858;28;20287;-66
2023/06/15 10:08:52;;;;;;;1.98;1.88;;;;;;;;;;5080152;28;20213;-66
2023/06/15 10:11:21;;;;;;;2.20;1.80;;;;;;;;;;5068773;28;20223;-67
2023/06/15 10:13:51;;;;;;;1.48;1.48;;;;;;;;;;5075825;28;20205;-66
2023/06/15 10:16:20;;;;;;;2.85;1.73;;;;;;;;;;5083771;28;20240;-67
2023/06/15 10:18:48;;;;;;;2.42;1.80;;;;;;;;;;5068425;28;20234;-67
2023/06/15 10:21:18;;;;;;;1.70;1.60;;;;;;;;;;5073368;28;20212;-67
2023/06/15 10:23:47;;;;;;;2.05;1.60;;;;;;;;;;5073053;28;20214;-67
2023/06/15 10:26:14;;;;;;;1.70;1.50;;;;;;;;;;5078125;28;20289;-68
2023/06/15 10:28:44;;;;;;;1.63;1.50;;;;;;;;;;5083505;28;20255;-68
2023/06/15 10:31:15;;;;;;;1.75;1.65;;;;;;;;;;5077416;28;20201;-69
2023/06/15 10:33:47;;;;;;;1.67;1.58;;;;;;;;;;5074093;28;20221;-69
2023/06/15 10:36:19;;;;;;;1.90;1.60;;;;;;;;;;5075672;28;20214;-68
2023/06/15 10:38:50;;;;;;;1.80;1.70;;;;;;;;;;5069807;28;20211;-66
2023/06/15 10:41:18;;;;;;;1.60;1.50;;;;;;;;;;5066708;28;20310;-67
2023/06/15 10:43:58;;;;;;;1.60;1.45;;;;;;;;;;5073803;28;20222;-67
2023/06/15 10:46:28;;;;;;;1.60;1.50;;;;;;;;;;5077528;28;20206;-68
2023/06/15 10:48:56;;;;;;;1.45;1.40;;;;;;;;;;5082145;28;20210;-67
2023/06/15 10:51:24;;;;;;;1.60;1.50;;;;;;;;;;5069868;28;20195;-68
2023/06/15 10:53:54;;;;;;;1.52;1.42;;;;;;;;;;5074217;28;20203;-69
2023/06/15 10:56:21;;;;;;;3.08;1.38;;;;;;;;;;5067211;28;20206;-67
2023/06/15 10:58:56;;;;;;;2.63;1.60;;;;;;;;;;5076743;28;20209;-67
2023/06/15 11:01:23;;;;;;;2.45;1.40;;;;;;;;;;5064857;28;20293;-67
2023/06/15 11:03:51;;;;;;;1.48;1.40;;;;;;;;;;5074901;28;20222;-67
2023/06/15 11:06:18;;;;;;;1.40;1.30;;;;;;;;;;5071404;28;20206;-69
2023/06/15 11:08:47;;;;;;;1.63;1.50;;;;;;;;;;5065656;28;20194;-67
2023/06/15 11:11:16;;;;;;;2.13;1.30;;;;;;;;;;5074240;28;20296;-67
2023/06/15 11:13:57;;;;;;;1.30;1.30;;;;;;;;;;5073456;28;20201;-68
2023/06/15 11:16:28;;;;;;;1.30;1.30;;;;;;;;;;5066857;28;20209;-67
2023/06/15 11:18:59;;;;;;;1.80;1.70;;;;;;;;;;5072844;28;20211;-68
2023/06/15 11:21:28;;;;;;;1.70;1.60;;;;;;;;;;5067314;28;20420;-67
2023/06/15 11:23:57;;;;;;;1.90;1.80;;;;;;;;;;5069346;28;20258;-67
2023/06/15 11:26:28;;;;;;;1.40;1.30;;;;;;;;;;5069309;28;20209;-67
2023/06/15 11:28:57;;;;;;;1.80;1.70;;;;;;;;;;5065266;28;20207;-67
2023/06/15 11:31:24;;;;;;;1.70;1.60;;;;;;;;;;5061556;28;20214;-66
2023/06/15 11:33:55;;;;;;;1.63;1.50;;;;;;;;;;5067760;28;20206;-67
2023/06/15 11:36:22;;;;;;;1.70;1.60;;;;;;;;;;5064046;28;20210;-67
2023/06/15 11:38:49;;;;;;;1.50;1.50;;;;;;;;;;5067429;28;20203;-67
2023/06/15 11:41:16;;;;;;;1.60;1.50;;;;;;;;;;5064379;28;20221;-67
2023/06/15 11:43:48;;;;;;;3.17;1.48;;;;;;;;;;5066240;28;20222;-66
2023/06/15 11:46:16;;;;;;;1.75;1.60;;;;;;;;;;5068007;28;20214;-66
2023/06/15 11:48:44;;;;;;;1.30;1.30;;;;;;;;;;5066993;28;20203;-66
2023/06/15 11:51:12;;;;;;;1.98;1.70;;;;;;;;;;5059802;28;20289;-66
2023/06/15 11:53:40;;;;;;;2.45;1.65;;;;;;;;;;5071787;28;20196;-66
2023/06/15 11:56:09;;;;;;;3.58;1.83;;;;;;;;;;5071804;28;20230;-66
2023/06/15 11:58:36;;;;;;;1.92;1.70;;;;;;;;;;5072787;28;20349;-66
2023/06/15 12:01:06;;;;;;;2.55;1.60;;;;;;;;;;5067747;28;20205;-66
2023/06/15 12:03:37;;;;;;;2.30;1.80;;;;;;;;;;5070721;28;20248;-66
2023/06/15 12:06:05;;;;;;;1.70;1.60;;;;;;;;;;5060524;28;20226;-67
2023/06/15 12:08:33;;;;;;;3.45;1.77;;;;;;;;;;5060281;28;20268;-67
2023/06/15 12:11:01;;;;;;;1.70;1.60;;;;;;;;;;5069731;28;20209;-66
2023/06/15 12:13:28;;;;;;;1.83;1.73;;;;;;;;;;5065874;28;20202;-67
2023/06/15 12:15:55;;;;;;;1.63;1.52;;;;;;;;;;5071484;28;20214;-66
2023/06/15 12:18:24;;;;;;;1.92;1.70;;;;;;;;;;5060484;28;20234;-67
2023/06/15 12:20:51;;;;;;;1.50;1.40;;;;;;;;;;5055000;28;20213;-74
2023/06/15 12:23:29;;;;;;;2.20;1.80;;;;;;;;;;5057168;28;20218;-75
2023/06/15 12:25:57;;;;;;;1.90;1.60;;;;;;;;;;5058208;28;20207;-74
2023/06/15 12:28:25;;;;;;;1.58;1.48;;;;;;;;;;5065543;28;20207;-75
2023/06/15 12:30:52;;;;;;;1.85;1.75;;;;;;;;;;5071340;28;20207;-74
2023/06/15 12:33:31;;;;;;;2.58;1.80;;;;;;;;;;5069981;28;20211;-73
2023/06/15 12:35:59;;;;;;;1.40;1.40;;;;;;;;;;5065613;28;20297;-75
2023/06/15 12:38:27;;;;;;;1.77;1.67;;;;;;;;;;5060559;28;20215;-74
2023/06/15 12:40:55;;;;;;;1.63;1.52;;;;;;;;;;5068196;28;20203;-74
2023/06/15 12:43:25;;;;;;;1.92;1.70;;;;;;;;;;5064918;28;20244;-75
2023/06/15 12:45:52;;;;;;;1.70;1.60;;;;;;;;;;5065369;28;20280;-73
2023/06/15 12:48:20;;;;;;;1.73;1.60;;;;;;;;;;5067279;28;20256;-73
2023/06/15 12:50:50;;;;;;;1.60;1.50;;;;;;;;;;5064503;28;20205;-74
2023/06/15 12:53:17;;;;;;;1.70;1.60;;;;;;;;;;5064141;28;20214;-74
2023/06/15 12:55:45;;;;;;;2.10;1.60;;;;;;;;;;5069570;28;20226;-73
2023/06/15 12:58:12;;;;;;;2.45;1.67;;;;;;;;;;5063677;28;20218;-74
2023/06/15 13:00:39;;;;;;;1.63;1.52;;;;;;;;;;5065287;28;20209;-73
2023/06/15 13:03:08;;;;;;;1.70;1.60;;;;;;;;;;5061106;28;20203;-75
2023/06/15 13:05:36;;;;;;;2.88;1.90;;;;;;;;;;5067814;28;20315;-75
2023/06/15 13:08:05;;;;;;;1.90;1.80;;;;;;;;;;5063619;28;20199;-75
2023/06/15 13:10:33;;;;;;;1.60;1.50;;;;;;;;;;5057757;28;20297;-75
2023/06/15 13:13:00;;;;;;;2.65;1.70;;;;;;;;;;5064229;28;20199;-74
2023/06/15 13:15:28;;;;;;;1.75;1.60;;;;;;;;;;5061859;28;20207;-73
2023/06/15 13:17:55;;;;;;;2.28;1.60;;;;;;;;;;5060686;28;20209;-73
2023/06/15 13:20:22;;;;;;;1.60;1.50;;;;;;;;;;5080090;28;20212;-73
2023/06/15 13:22:50;;;;;;;2.53;1.65;;;;;;;;;;5075771;28;20217;-73
2023/06/15 13:25:19;;;;;;;1.83;1.52;;;;;;;;;;5079441;28;20240;-73
2023/06/15 13:30:17;;;;;;;2.17;1.70;;;;;;;;;;5071980;28;20207;-89
2023/06/15 13:32:45;;;;;;;1.77;1.67;;;;;;;;;;5072960;28;20199;-89
2023/06/15 13:35:13;;;;;;;3.40;1.98;;;;;;;;;;5082238;28;20229;-89
2023/06/15 13:37:41;;;;;;;2.63;1.88;;;;;;;;;;5079934;28;20226;-90
2023/06/15 13:40:10;;;;;;;3.33;1.60;;;;;;;;;;5073196;28;20195;-90
2023/06/15 13:42:40;;;;;;;1.90;1.80;;;;;;;;;;5073163;28;20199;-89
2023/06/15 13:45:08;;;;;;;1.90;1.80;;;;;;;;;;5079053;28;20212;-89
2023/06/15 13:47:37;;;;;;;2.20;1.75;;;;;;;;;;5093544;28;20197;-89
2023/06/15 13:50:04;;;;;;;2.20;1.90;;;;;;;;;;5096573;28;20224;-90
2023/06/15 13:52:32;;;;;;;1.70;1.60;;;;;;;;;;5077516;28;20198;-91
2023/06/15 13:55:00;;;;;;;1.92;1.80;;;;;;;;;;5064502;28;20203;-89
2023/06/15 13:57:27;;;;;;;2.30;1.70;;;;;;;;;;5065334;28;20200;-89
2023/06/15 13:59:56;;;;;;;1.92;1.80;;;;;;;;;;5076037;28;20199;-90
2023/06/15 14:02:23;;;;;;;4.10;1.90;;;;;;;;;;5073615;28;20221;-89
2023/06/15 14:04:52;;;;;;;1.88;1.75;;;;;;;;;;5078888;28;20215;-89
2023/06/15 14:07:19;;;;;;;1.80;1.70;;;;;;;;;;5076433;28;20207;-89
2023/06/15 14:09:46;;;;;;;2.25;1.80;;;;;;;;;;5071296;28;20210;-90
2023/06/15 14:12:14;;;;;;;2.00;1.73;;;;;;;;;;5074807;28;20198;-89
2023/06/15 14:14:42;;;;;;;1.83;1.73;;;;;;;;;;5076692;28;20202;-89
2023/06/15 14:17:11;;;;;;;2.45;1.83;;;;;;;;;;5076288;28;20269;-90
2023/06/15 14:19:38;;;;;;;2.08;1.88;;;;;;;;;;5058303;28;20203;-90
2023/06/15 14:22:05;;;;;;;2.55;1.88;;;;;;;;;;5088232;28;20210;-90
2023/06/15 14:24:33;;;;;;;1.80;1.70;;;;;;;;;;5080077;28;20206;-90
2023/06/15 14:27:00;;;;;;;2.10;2.00;;;;;;;;;;5075648;28;20200;-89
2023/06/15 14:29:27;;;;;;;2.33;2.13;;;;;;;;;;5054703;28;20226;-89
2023/06/15 14:31:55;;;;;;;2.13;1.90;;;;;;;;;;5074411;28;20221;-89
2023/06/15 14:34:24;;;;;;;2.67;1.83;;;;;;;;;;5074911;28;20222;-89
2023/06/15 14:36:52;;;;;;;2.92;1.80;;;;;;;;;;5075436;28;20238;-89
2023/06/15 14:39:20;;;;;;;2.10;2.00;;;;;;;;;;5080097;28;20233;-90
2023/06/15 14:41:48;;;;;;;1.88;1.77;;;;;;;;;;5073853;28;20281;-90
2023/06/15 14:44:15;;;;;;;2.53;1.60;;;;;;;;;;5077975;28;20195;-90
2023/06/15 14:46:43;;;;;;;1.70;1.60;;;;;;;;;;5075409;28;20199;-89
2023/06/15 14:49:11;;;;;;;2.10;1.80;;;;;;;;;;5074924;28;20285;-90
2023/06/15 14:51:40;;;;;;;1.98;1.80;;;;;;;;;;5075034;28;20294;-90